Time;durP1;ratioP1;P1;durP2;ratioP2;P2;SDS_P1;SDS_P2;PMS_P1;PMS_P2;Temp;Humidity;BMP_temperature;BMP_pressure;BME280_temperature;BME280_humidity;BME280_pressure;Samples;Min_cycle;Max_cycle;Signal;HPM_P1;HPM_P2
2024/01/01 00:00:44;;;;;;;80.10;35.83;;;;;;;2.71;100.00;99310.47;4244441;28;21068;-70
2024/01/01 00:03:14;;;;;;;84.10;35.13;;;;;;;2.59;100.00;99298.97;4238883;28;21754;-69
2024/01/01 00:05:40;;;;;;;73.37;31.13;;;;;;;2.59;100.00;99298.97;4238401;28;20256;-70
2024/01/01 00:08:07;;;;;;;78.30;30.67;;;;;;;2.58;100.00;99301.75;4232004;28;20233;-70
2024/01/01 00:10:34;;;;;;;84.17;30.87;;;;;;;2.62;100.00;99303.19;4234274;28;20234;-70
2024/01/01 00:13:01;;;;;;;72.03;30.37;;;;;;;2.55;100.00;99297.53;4238972;28;21079;-69
2024/01/01 00:15:27;;;;;;;74.67;30.33;;;;;;;2.57;100.00;99300.06;4209828;28;22386;-70
2024/01/01 00:17:55;;;;;;;82.80;32.30;;;;;;;2.59;100.00;99317.66;4226920;28;20281;-70
2024/01/01 00:20:21;;;;;;;83.77;33.30;;;;;;;2.54;100.00;99306.50;4237933;28;20296;-71
2024/01/01 00:22:49;;;;;;;87.37;34.67;;;;;;;2.52;100.00;99311.13;4240019;28;20245;-69
2024/01/01 00:25:16;;;;;;;80.10;32.90;;;;;;;2.53;100.00;99312.81;4239927;28;22611;-68
2024/01/01 00:27:43;;;;;;;97.07;35.53;;;;;;;2.55;100.00;99305.53;4236693;28;20232;-67
2024/01/01 00:30:10;;;;;;;92.03;36.97;;;;;;;2.57;100.00;99286.69;4243335;28;20238;-68
2024/01/01 00:32:36;;;;;;;95.43;36.73;;;;;;;2.53;100.00;99289.59;4247268;28;20306;-68
2024/01/01 00:35:04;;;;;;;94.10;39.17;;;;;;;2.50;100.00;99283.66;4234023;28;20269;-69
2024/01/01 00:37:31;;;;;;;99.47;38.50;;;;;;;2.43;100.00;99286.00;4234935;28;20238;-68
2024/01/01 00:39:57;;;;;;;92.03;38.30;;;;;;;2.49;100.00;99282.00;4240698;28;22858;-68
2024/01/01 00:42:25;;;;;;;95.70;38.00;;;;;;;2.43;100.00;99291.34;4239427;28;20238;-67
2024/01/01 00:44:52;;;;;;;86.87;38.07;;;;;;;2.42;100.00;99295.00;4240242;28;20284;-69
2024/01/01 00:47:18;;;;;;;87.53;36.27;;;;;;;2.42;100.00;99291.47;4241631;28;20333;-69
2024/01/01 00:49:45;;;;;;;92.10;39.27;;;;;;;2.38;100.00;99289.03;4239616;28;21083;-69
2024/01/01 00:52:11;;;;;;;97.40;39.47;;;;;;;2.35;100.00;99288.44;4231905;28;21973;-70
2024/01/01 00:54:38;;;;;;;95.93;38.07;;;;;;;2.40;100.00;99299.59;4232474;28;20357;-69
2024/01/01 00:57:04;;;;;;;91.83;38.67;;;;;;;2.41;100.00;99306.63;4250149;28;20234;-70
2024/01/01 00:59:31;;;;;;;92.53;37.80;;;;;;;2.40;100.00;99304.09;4235424;28;20234;-68
2024/01/01 01:01:58;;;;;;;95.50;37.60;;;;;;;2.38;100.00;99302.41;4234910;28;20227;-68
2024/01/01 01:04:24;;;;;;;89.17;37.57;;;;;;;2.36;100.00;99293.66;4234703;28;20491;-67
2024/01/01 01:06:52;;;;;;;92.33;37.30;;;;;;;2.46;100.00;99293.75;4234463;28;20239;-71
2024/01/01 01:09:20;;;;;;;85.53;36.37;;;;;;;2.35;100.00;99283.09;4239532;28;20242;-69
2024/01/01 01:11:46;;;;;;;93.03;36.20;;;;;;;2.41;100.00;99284.44;4251390;28;23539;-69
2024/01/01 01:14:13;;;;;;;84.20;35.60;;;;;;;2.41;100.00;99287.09;4250115;28;20249;-68
2024/01/01 01:16:40;;;;;;;85.00;34.57;;;;;;;2.46;100.00;99288.41;4232761;28;23889;-70
2024/01/01 01:19:06;;;;;;;81.97;35.13;;;;;;;2.40;100.00;99296.09;4236686;28;20231;-69
2024/01/01 01:21:33;;;;;;;80.63;35.43;;;;;;;2.38;100.00;99296.19;4233565;28;21635;-71
2024/01/01 01:24:00;;;;;;;77.80;32.97;;;;;;;2.42;100.00;99300.31;4230918;28;20243;-70
2024/01/01 01:26:26;;;;;;;79.67;32.33;;;;;;;2.43;100.00;99301.16;4244547;28;20263;-69
2024/01/01 01:28:53;;;;;;;87.67;35.20;;;;;;;2.42;100.00;99303.00;4242354;28;20249;-69
2024/01/01 01:31:20;;;;;;;79.13;30.67;;;;;;;2.37;100.00;99299.84;4245873;28;20238;-69
2024/01/01 01:33:46;;;;;;;74.63;32.73;;;;;;;2.39;100.00;99297.88;4236590;28;20330;-68
2024/01/01 01:36:14;;;;;;;87.43;35.50;;;;;;;2.40;100.00;99299.59;4254240;28;20227;-69
2024/01/01 01:38:41;;;;;;;78.27;31.73;;;;;;;2.38;100.00;99298.84;4243299;28;20281;-70
2024/01/01 01:41:08;;;;;;;77.90;31.50;;;;;;;2.37;100.00;99306.03;4233430;28;20454;-70
2024/01/01 01:43:34;;;;;;;83.87;35.57;;;;;;;2.39;100.00;99297.88;4237135;28;20245;-69
2024/01/01 01:46:02;;;;;;;79.93;34.43;;;;;;;2.41;100.00;99311.97;4239236;28;21309;-69
2024/01/01 01:48:29;;;;;;;85.70;35.47;;;;;;;2.44;100.00;99308.22;4233540;28;20475;-70
2024/01/01 01:50:56;;;;;;;87.67;35.33;;;;;;;2.41;100.00;99295.97;4233721;28;25295;-68
2024/01/01 01:53:26;;;;;;;82.23;35.33;;;;;;;2.39;100.00;99292.53;4245535;28;20372;-70
2024/01/01 01:55:55;;;;;;;86.53;36.00;;;;;;;2.39;100.00;99287.22;4239598;28;20233;-69
2024/01/01 01:58:22;;;;;;;78.43;34.37;;;;;;;2.36;100.00;99280.28;4245722;28;20234;-71
2024/01/01 02:00:51;;;;;;;85.90;32.40;;;;;;;2.34;100.00;99278.72;4237089;28;21108;-69
2024/01/01 02:03:18;;;;;;;76.43;31.47;;;;;;;2.34;100.00;99282.22;4246670;28;20346;-69
2024/01/01 02:05:45;;;;;;;81.87;33.13;;;;;;;2.35;100.00;99280.44;4227909;28;22843;-70
2024/01/01 02:08:13;;;;;;;72.10;32.17;;;;;;;2.34;100.00;99271.56;4245335;28;20316;-70
2024/01/01 02:10:40;;;;;;;83.43;33.37;;;;;;;2.29;100.00;99267.56;4253815;28;20317;-70
2024/01/01 02:13:22;;;;;;;78.27;30.23;;;;;;;2.27;100.00;99273.00;4237407;28;21994;-70
2024/01/01 02:15:49;;;;;;;81.50;33.53;;;;;;;2.24;100.00;99272.41;4249272;28;20327;-69
2024/01/01 02:18:15;;;;;;;75.70;31.83;;;;;;;2.22;100.00;99269.88;4252203;28;20349;-69
2024/01/01 02:20:42;;;;;;;80.47;33.87;;;;;;;2.25;100.00;99276.78;4234490;28;20341;-71
2024/01/01 02:23:08;;;;;;;84.70;33.63;;;;;;;2.19;100.00;99276.31;4241991;28;21779;-71
2024/01/01 02:25:35;;;;;;;74.23;31.47;;;;;;;2.18;100.00;99269.28;4245722;28;20312;-70
2024/01/01 02:28:02;;;;;;;74.13;31.93;;;;;;;2.18;100.00;99263.09;4245970;28;20394;-69
2024/01/01 02:30:28;;;;;;;87.23;33.07;;;;;;;2.17;100.00;99259.56;4233520;28;20321;-70
2024/01/01 02:32:55;;;;;;;84.30;33.00;;;;;;;2.17;100.00;99259.56;4250509;28;20234;-70
2024/01/01 02:35:22;;;;;;;71.60;29.57;;;;;;;2.18;100.00;99249.75;4244684;28;20250;-68
2024/01/01 02:37:48;;;;;;;84.37;32.47;;;;;;;2.15;100.00;99253.50;4237001;28;20253;-69
2024/01/01 02:40:15;;;;;;;74.60;32.53;;;;;;;2.21;100.00;99260.16;4236863;28;20388;-70
2024/01/01 02:42:42;;;;;;;76.40;31.60;;;;;;;2.21;100.00;99261.03;4239908;28;22074;-70
2024/01/01 02:45:09;;;;;;;73.40;31.30;;;;;;;2.14;100.00;99249.16;4242836;28;21103;-69
2024/01/01 02:47:37;;;;;;;70.30;31.40;;;;;;;2.18;100.00;99237.22;4239727;28;20222;-70
2024/01/01 02:50:05;;;;;;;73.27;29.60;;;;;;;2.17;100.00;99227.53;4243310;28;23872;-70
2024/01/01 02:52:31;;;;;;;77.57;30.87;;;;;;;2.08;100.00;99227.41;4242710;28;20298;-71
2024/01/01 02:54:58;;;;;;;71.07;29.10;;;;;;;2.07;100.00;99229.25;4240317;28;20375;-69
2024/01/01 02:57:26;;;;;;;76.17;30.00;;;;;;;2.01;100.00;99227.91;4236843;28;20227;-70
2024/01/01 02:59:52;;;;;;;66.30;30.10;;;;;;;2.03;100.00;99225.97;4237375;28;21175;-68
2024/01/01 03:02:19;;;;;;;77.03;31.07;;;;;;;2.07;100.00;99223.91;4234743;28;20234;-71
2024/01/01 03:04:45;;;;;;;74.30;30.47;;;;;;;2.00;100.00;99234.22;4241781;28;20530;-70
2024/01/01 03:07:12;;;;;;;75.50;29.90;;;;;;;2.04;100.00;99235.66;4240438;28;22890;-69
2024/01/01 03:09:39;;;;;;;73.43;30.80;;;;;;;1.99;100.00;99235.19;4232797;28;21481;-70
2024/01/01 03:12:06;;;;;;;78.90;30.47;;;;;;;1.95;100.00;99231.06;4244227;28;20245;-71
2024/01/01 03:14:32;;;;;;;70.87;29.70;;;;;;;1.98;100.00;99222.81;4243607;28;20227;-70
2024/01/01 03:16:59;;;;;;;77.13;31.57;;;;;;;1.99;100.00;99229.00;4234445;28;20234;-70
2024/01/01 03:19:26;;;;;;;72.27;29.33;;;;;;;2.01;100.00;99232.38;4238229;28;26282;-69
2024/01/01 03:21:52;;;;;;;73.10;30.10;;;;;;;1.99;100.00;99234.34;4242199;28;20875;-69
2024/01/01 03:24:19;;;;;;;80.03;31.03;;;;;;;1.97;100.00;99229.13;4252264;28;20473;-69
2024/01/01 03:26:45;;;;;;;79.87;31.53;;;;;;;1.99;100.00;99226.34;4229560;28;20285;-69
2024/01/01 03:29:12;;;;;;;73.47;30.33;;;;;;;2.05;100.00;99228.53;4243545;28;20222;-68
2024/01/01 03:31:44;;;;;;;66.30;28.20;;;;;;;1.97;100.00;99225.59;4246847;28;20237;-70
2024/01/01 03:34:11;;;;;;;84.73;31.13;;;;;;;1.87;100.00;99229.00;4235286;28;20597;-70
2024/01/01 03:36:37;;;;;;;80.67;31.17;;;;;;;1.85;100.00;99235.44;4216205;28;22237;-70
2024/01/01 03:39:04;;;;;;;74.07;30.90;;;;;;;1.88;100.00;99230.69;4242767;28;22012;-70
2024/01/01 03:41:32;;;;;;;73.47;30.23;;;;;;;1.89;100.00;99234.22;4244659;28;20234;-70
2024/01/01 03:43:59;;;;;;;70.17;29.80;;;;;;;1.92;100.00;99236.66;4241038;28;20233;-70
2024/01/01 03:46:25;;;;;;;80.07;30.93;;;;;;;1.93;100.00;99245.53;4226432;28;20239;-69
2024/01/01 03:48:52;;;;;;;77.07;30.23;;;;;;;1.92;100.00;99244.66;4232440;28;20250;-69
2024/01/01 03:51:18;;;;;;;72.10;30.40;;;;;;;1.97;100.00;99236.28;4223539;28;20222;-71
2024/01/01 03:53:45;;;;;;;75.27;31.50;;;;;;;1.96;100.00;99235.44;4240936;28;20250;-70
2024/01/01 03:56:12;;;;;;;81.90;31.00;;;;;;;1.98;100.00;99232.66;4232099;28;21463;-69
2024/01/01 03:58:39;;;;;;;79.70;31.90;;;;;;;2.00;100.00;99228.03;4238052;28;20238;-69
2024/01/01 04:01:11;;;;;;;76.63;31.10;;;;;;;1.99;100.00;99213.00;4240181;28;20234;-70
2024/01/01 04:03:38;;;;;;;81.03;32.47;;;;;;;2.00;100.00;99218.22;4247845;28;20235;-70
2024/01/01 04:06:07;;;;;;;78.57;30.60;;;;;;;2.03;100.00;99220.63;4230658;28;20239;-68
2024/01/01 04:08:34;;;;;;;78.43;31.13;;;;;;;2.06;100.00;99199.03;4230778;28;20413;-70
2024/01/01 04:11:01;;;;;;;72.30;31.47;;;;;;;2.07;100.00;99197.22;4258611;28;22356;-70
2024/01/01 04:13:28;;;;;;;82.77;31.70;;;;;;;2.06;100.00;99206.19;4240911;28;21039;-70
2024/01/01 04:15:55;;;;;;;79.93;30.90;;;;;;;2.11;100.00;99204.00;4234229;28;20232;-69
2024/01/01 04:18:22;;;;;;;75.47;29.63;;;;;;;2.13;100.00;99196.72;4226680;28;20284;-69
2024/01/01 04:20:49;;;;;;;74.13;28.87;;;;;;;2.19;100.00;99198.88;4244530;28;21862;-70
2024/01/01 04:23:15;;;;;;;74.67;29.33;;;;;;;2.25;100.00;99200.22;4231693;28;21158;-69
2024/01/01 04:25:42;;;;;;;74.20;29.77;;;;;;;2.25;100.00;99194.00;4214721;28;20270;-70
2024/01/01 04:28:08;;;;;;;72.23;30.03;;;;;;;2.31;100.00;99196.19;4235404;28;20232;-70
2024/01/01 04:30:35;;;;;;;71.33;29.80;;;;;;;2.31;100.00;99189.03;4227882;28;20656;-70
2024/01/01 04:33:02;;;;;;;77.40;30.60;;;;;;;2.22;100.00;99195.13;4239786;28;20311;-69
2024/01/01 04:35:28;;;;;;;73.23;29.47;;;;;;;2.33;100.00;99194.22;4233852;28;20292;-70
2024/01/01 04:37:55;;;;;;;82.07;31.23;;;;;;;2.30;100.00;99182.00;4242713;28;20648;-70
2024/01/01 04:40:22;;;;;;;69.47;29.83;;;;;;;2.29;100.00;99180.28;4246990;28;20356;-69
2024/01/01 04:42:50;;;;;;;74.37;29.77;;;;;;;2.28;100.00;99178.59;4236872;28;21405;-70
2024/01/01 04:45:16;;;;;;;70.13;29.30;;;;;;;2.22;100.00;99177.28;4233665;28;23004;-69
2024/01/01 04:47:43;;;;;;;72.03;29.53;;;;;;;2.37;100.00;99180.50;4237619;28;21164;-70
2024/01/01 04:50:10;;;;;;;73.13;30.33;;;;;;;2.43;100.00;99179.16;4244960;28;20235;-72
2024/01/01 04:52:36;;;;;;;72.80;30.23;;;;;;;2.63;100.00;99173.97;4233479;28;20246;-71
2024/01/01 04:55:03;;;;;;;72.30;29.30;;;;;;;2.76;100.00;99171.13;4239497;28;20331;-70
2024/01/01 04:57:30;;;;;;;66.37;28.00;;;;;;;2.77;100.00;99168.31;4252435;28;20380;-69
2024/01/01 04:59:56;;;;;;;74.00;29.17;;;;;;;2.62;100.00;99169.59;4239992;28;22744;-70
2024/01/01 05:02:23;;;;;;;67.60;29.10;;;;;;;2.69;100.00;99177.00;4230188;28;20226;-70
2024/01/01 05:04:49;;;;;;;77.23;30.47;;;;;;;2.89;100.00;99182.50;4233662;28;20795;-69
2024/01/01 05:07:16;;;;;;;70.73;29.03;;;;;;;2.80;100.00;99180.56;4244172;28;20227;-70
2024/01/01 05:09:43;;;;;;;68.07;28.87;;;;;;;2.85;100.00;99175.72;4238753;28;20239;-70
2024/01/01 05:12:13;;;;;;;70.53;30.00;;;;;;;2.90;100.00;99175.34;4235571;28;21596;-68
2024/01/01 05:14:39;;;;;;;70.00;29.33;;;;;;;2.81;100.00;99163.56;4235125;28;21348;-70
2024/01/01 05:17:06;;;;;;;79.50;29.97;;;;;;;2.94;100.00;99171.41;4238688;28;20304;-68
2024/01/01 05:19:33;;;;;;;69.47;30.00;;;;;;;2.89;100.00;99170.97;4242138;28;20238;-69
2024/01/01 05:21:59;;;;;;;77.93;31.23;;;;;;;2.68;100.00;99179.81;4233844;28;20236;-70
2024/01/01 05:24:26;;;;;;;83.13;30.57;;;;;;;2.53;100.00;99173.91;4232643;28;20405;-70
2024/01/01 05:26:52;;;;;;;76.13;29.23;;;;;;;2.68;100.00;99177.97;4234581;28;21255;-70
2024/01/01 05:29:19;;;;;;;78.73;31.77;;;;;;;2.83;100.00;99166.97;4242035;28;22590;-70
2024/01/01 05:31:45;;;;;;;77.10;31.37;;;;;;;2.78;100.00;99178.03;4218149;28;20598;-70
2024/01/01 05:34:12;;;;;;;86.90;32.20;;;;;;;2.91;100.00;99179.72;4238070;28;20257;-70
2024/01/01 05:36:38;;;;;;;80.43;30.97;;;;;;;2.79;100.00;99177.06;4251360;28;20289;-70
2024/01/01 05:39:06;;;;;;;85.10;31.13;;;;;;;2.83;100.00;99170.47;4244038;28;20296;-69
2024/01/01 05:41:32;;;;;;;86.23;31.00;;;;;;;2.68;100.00;99163.78;4233562;28;20289;-69
2024/01/01 05:43:59;;;;;;;80.23;32.23;;;;;;;2.57;100.00;99163.81;4246873;28;20231;-70
2024/01/01 05:46:25;;;;;;;93.93;33.53;;;;;;;2.71;100.00;99174.19;4245148;28;20290;-70
2024/01/01 05:48:52;;;;;;;83.60;31.43;;;;;;;2.75;100.00;99172.09;4248696;28;23038;-69
2024/01/01 05:51:19;;;;;;;80.53;31.53;;;;;;;2.65;100.00;99166.69;4233736;28;20458;-71
2024/01/01 05:53:45;;;;;;;86.33;31.13;;;;;;;2.58;100.00;99158.31;4247864;28;20255;-70
2024/01/01 05:56:12;;;;;;;93.40;31.93;;;;;;;2.46;100.00;99162.03;4249947;28;20238;-70
2024/01/01 05:58:38;;;;;;;86.87;31.90;;;;;;;2.46;100.00;99168.22;4240819;28;20412;-70
2024/01/01 06:01:05;;;;;;;90.13;32.87;;;;;;;2.52;100.00;99169.53;4238267;28;21888;-70
2024/01/01 06:03:32;;;;;;;84.83;31.83;;;;;;;2.70;100.00;99156.47;4244542;28;20245;-70
2024/01/01 06:05:58;;;;;;;82.40;32.40;;;;;;;2.58;100.00;99160.16;4245714;28;20274;-68
2024/01/01 06:08:25;;;;;;;85.73;31.03;;;;;;;2.57;100.00;99166.47;4233015;28;20397;-70
2024/01/01 06:10:51;;;;;;;90.33;31.13;;;;;;;2.60;100.00;99161.72;4241927;28;20513;-71
2024/01/01 06:13:18;;;;;;;79.57;31.27;;;;;;;2.65;100.00;99158.69;4252454;28;22134;-70
2024/01/01 06:15:45;;;;;;;79.30;29.70;;;;;;;2.67;100.00;99154.06;4237362;28;22107;-71
2024/01/01 06:18:11;;;;;;;92.60;32.10;;;;;;;2.48;100.00;99158.25;4245569;28;20252;-70
2024/01/01 06:20:39;;;;;;;91.47;33.43;;;;;;;2.38;100.00;99165.31;4240359;28;20382;-70
2024/01/01 06:23:05;;;;;;;99.30;32.70;;;;;;;2.62;100.00;99167.81;4239871;28;22353;-69
2024/01/01 06:25:32;;;;;;;100.03;32.77;;;;;;;2.69;100.00;99171.66;4240470;28;22352;-69
2024/01/01 06:27:58;;;;;;;94.60;33.30;;;;;;;2.66;100.00;99171.06;4245712;28;20238;-70
2024/01/01 06:30:25;;;;;;;88.10;32.10;;;;;;;2.72;100.00;99177.72;4232707;28;20486;-69
2024/01/01 06:32:52;;;;;;;91.57;33.17;;;;;;;2.51;100.00;99168.69;4241719;28;20230;-70
2024/01/01 06:35:18;;;;;;;89.77;31.87;;;;;;;2.61;100.00;99173.25;4246495;28;20312;-69
2024/01/01 06:37:45;;;;;;;91.30;33.83;;;;;;;2.47;100.00;99166.41;4227284;28;20234;-69
2024/01/01 06:40:12;;;;;;;95.73;33.20;;;;;;;2.31;100.00;99170.34;4241867;28;20233;-70
2024/01/01 06:42:38;;;;;;;100.97;36.40;;;;;;;2.38;100.00;99165.31;4242365;28;20321;-69
2024/01/01 06:45:09;;;;;;;96.17;34.23;;;;;;;2.28;100.00;99157.22;4240936;28;21317;-69
2024/01/01 06:47:37;;;;;;;110.73;37.73;;;;;;;2.26;100.00;99163.66;4241860;28;20234;-69
2024/01/01 06:50:04;;;;;;;103.83;35.77;;;;;;;2.42;100.00;99165.94;4239254;28;23941;-69
2024/01/01 06:52:31;;;;;;;116.33;35.67;;;;;;;2.31;100.00;99159.66;4246369;28;20240;-71
2024/01/01 06:55:00;;;;;;;100.50;34.93;;;;;;;2.36;100.00;99164.63;4239654;28;20243;-68
2024/01/01 06:57:27;;;;;;;93.50;34.67;;;;;;;2.50;100.00;99167.00;4236292;28;20485;-69
2024/01/01 06:59:54;;;;;;;110.77;37.80;;;;;;;2.46;100.00;99162.03;4239371;28;20298;-70
2024/01/01 07:02:22;;;;;;;118.77;42.07;;;;;;;2.31;100.00;99165.00;4237989;28;20285;-70
2024/01/01 07:04:49;;;;;;;117.47;42.00;;;;;;;2.40;100.00;99152.69;4238205;28;20239;-69
2024/01/01 07:07:15;;;;;;;118.97;37.80;;;;;;;2.46;100.00;99159.38;4236394;28;20257;-70
2024/01/01 07:09:42;;;;;;;105.53;37.20;;;;;;;2.52;100.00;99153.50;4241380;28;21671;-70
2024/01/01 07:12:23;;;;;;;112.13;38.13;;;;;;;2.41;100.00;99159.75;4259039;28;20729;-69
2024/01/01 07:14:50;;;;;;;118.63;38.40;;;;;;;2.55;100.00;99153.25;4249397;28;20234;-71
2024/01/01 07:17:19;;;;;;;106.17;36.23;;;;;;;2.56;100.00;99162.09;4257965;28;20241;-71
2024/01/01 07:19:46;;;;;;;108.43;35.73;;;;;;;2.57;100.00;99164.66;4236540;28;20234;-72
2024/01/01 07:22:13;;;;;;;105.20;35.03;;;;;;;2.60;100.00;99169.75;4257774;28;20221;-70
2024/01/01 07:24:43;;;;;;;101.85;34.90;;;;;;;2.47;100.00;99169.91;4260384;28;20276;-69
2024/01/01 07:27:10;;;;;;;107.47;34.60;;;;;;;2.47;100.00;99161.91;4250569;28;20540;-70
2024/01/01 07:29:37;;;;;;;90.13;31.23;;;;;;;2.58;100.00;99163.69;4248151;28;20226;-69
2024/01/01 07:32:04;;;;;;;98.60;32.63;;;;;;;2.45;100.00;99161.19;4276533;28;22201;-70
2024/01/01 07:34:31;;;;;;;96.33;30.77;;;;;;;2.44;100.00;99162.16;4247809;28;25729;-69
2024/01/01 07:36:58;;;;;;;93.93;32.87;;;;;;;2.52;100.00;99158.84;4262071;28;20226;-69
2024/01/01 07:39:25;;;;;;;95.03;31.70;;;;;;;2.53;100.00;99169.41;4268528;28;20408;-70
2024/01/01 07:41:52;;;;;;;92.87;32.43;;;;;;;2.63;100.00;99179.31;4308374;28;20365;-71
2024/01/01 07:44:19;;;;;;;92.23;31.70;;;;;;;2.56;100.00;99176.34;4360667;28;20264;-71
2024/01/01 07:46:47;;;;;;;85.50;29.97;;;;;;;2.64;100.00;99168.53;4306476;28;20284;-71
2024/01/01 07:49:15;;;;;;;78.83;29.07;;;;;;;2.70;100.00;99175.16;4289146;28;20660;-77
2024/01/01 07:51:42;;;;;;;96.27;32.03;;;;;;;2.71;100.00;99168.00;4267367;28;21142;-77
2024/01/01 07:54:09;;;;;;;83.40;29.40;;;;;;;2.77;100.00;99176.34;4288741;28;20247;-75
2024/01/01 07:56:43;;;;;;;91.80;31.77;;;;;;;2.62;100.00;99172.28;4301645;28;20523;-52
2024/01/01 07:59:11;;;;;;;86.17;30.27;;;;;;;2.66;100.00;99174.56;4259617;28;20234;-74
2024/01/01 08:01:39;;;;;;;84.83;30.57;;;;;;;2.73;100.00;99177.59;4272808;28;20598;-74
2024/01/01 08:04:07;;;;;;;108.67;33.13;;;;;;;2.53;100.00;99176.56;4295927;28;20239;-72
2024/01/01 08:06:35;;;;;;;91.03;31.30;;;;;;;2.59;100.00;99169.88;4293011;28;20241;-74
2024/01/01 08:09:03;;;;;;;97.43;32.67;;;;;;;2.42;100.00;99158.78;4283598;28;20228;-72
2024/01/01 08:11:29;;;;;;;92.53;31.77;;;;;;;2.43;100.00;99160.47;4279144;28;20239;-77
2024/01/01 08:13:56;;;;;;;93.73;30.63;;;;;;;2.61;100.00;99157.22;4267869;28;20228;-70
2024/01/01 08:16:23;;;;;;;87.07;29.90;;;;;;;2.61;100.00;99152.75;4257182;28;20231;-70
2024/01/01 08:18:49;;;;;;;81.70;29.90;;;;;;;2.73;100.00;99158.88;4303608;28;20235;-71
2024/01/01 08:21:16;;;;;;;88.33;30.23;;;;;;;2.66;100.00;99153.19;4285038;28;20303;-71
2024/01/01 08:23:45;;;;;;;82.10;30.23;;;;;;;2.75;100.00;99161.41;4278775;28;20224;-69
2024/01/01 08:26:11;;;;;;;87.77;30.60;;;;;;;2.68;100.00;99155.75;4338144;28;20321;-70
2024/01/01 08:28:38;;;;;;;85.53;30.57;;;;;;;2.58;100.00;99153.00;4275879;28;20267;-72
2024/01/01 08:31:04;;;;;;;82.17;29.37;;;;;;;2.55;100.00;99158.59;4264813;28;20222;-71
2024/01/01 08:33:31;;;;;;;83.83;30.73;;;;;;;2.62;100.00;99150.91;4258843;28;20609;-71
2024/01/01 08:35:58;;;;;;;83.97;30.87;;;;;;;2.67;100.00;99152.22;4249697;28;23023;-72
2024/01/01 08:38:25;;;;;;;80.53;29.90;;;;;;;2.61;100.00;99152.75;4252338;28;20237;-73
2024/01/01 08:40:52;;;;;;;83.53;28.40;;;;;;;2.61;100.00;99159.91;4252289;28;20237;-71
2024/01/01 08:43:18;;;;;;;79.00;29.67;;;;;;;2.81;100.00;99150.22;4246224;28;21725;-68
2024/01/01 08:45:47;;;;;;;78.20;29.60;;;;;;;2.77;100.00;99149.63;4264360;28;21192;-71
2024/01/01 08:48:14;;;;;;;73.03;27.60;;;;;;;2.85;100.00;99152.50;4250327;28;21353;-68
2024/01/01 08:50:40;;;;;;;80.90;28.90;;;;;;;2.92;100.00;99149.28;4269663;28;22631;-69
2024/01/01 08:53:07;;;;;;;78.00;28.40;;;;;;;2.92;100.00;99147.50;4258880;28;22172;-70
2024/01/01 08:55:33;;;;;;;76.47;29.67;;;;;;;2.64;100.00;99141.81;4266030;28;20237;-68
2024/01/01 08:58:00;;;;;;;75.83;28.00;;;;;;;2.76;100.00;99147.91;4293926;28;21792;-67
2024/01/01 09:00:27;;;;;;;79.43;28.77;;;;;;;2.88;100.00;99146.03;4263536;28;20230;-70
2024/01/01 09:02:53;;;;;;;74.50;28.80;;;;;;;2.80;100.00;99153.84;4249313;28;20315;-71
2024/01/01 09:05:21;;;;;;;77.03;28.30;;;;;;;2.88;100.00;99150.56;4242201;28;21609;-73
2024/01/01 09:07:48;;;;;;;75.47;26.83;;;;;;;2.84;100.00;99156.16;4249618;28;21127;-69
2024/01/01 09:10:16;;;;;;;75.03;29.80;;;;;;;2.71;100.00;99147.47;4250684;28;20635;-70
2024/01/01 09:12:43;;;;;;;76.33;28.70;;;;;;;2.77;100.00;99141.59;4275608;28;20834;-71
2024/01/01 09:15:10;;;;;;;86.40;31.33;;;;;;;2.80;100.00;99151.19;4267756;28;20313;-68
2024/01/01 09:17:37;;;;;;;86.03;29.80;;;;;;;2.84;100.00;99144.63;4273980;28;20317;-71
2024/01/01 09:20:05;;;;;;;83.57;28.10;;;;;;;2.84;100.00;99144.63;4270610;28;20245;-69
2024/01/01 09:22:32;;;;;;;77.70;28.27;;;;;;;2.81;100.00;99150.22;4275129;28;20232;-70
2024/01/01 09:24:58;;;;;;;73.70;27.90;;;;;;;2.89;100.00;99145.06;4271204;28;21511;-69
2024/01/01 09:27:25;;;;;;;78.23;29.20;;;;;;;2.90;100.00;99145.94;4290166;28;20239;-70
2024/01/01 09:29:53;;;;;;;88.13;30.37;;;;;;;2.99;100.00;99146.00;4254740;28;21131;-72
2024/01/01 09:32:20;;;;;;;76.60;29.90;;;;;;;2.95;100.00;99144.53;4298191;28;20246;-72
2024/01/01 09:34:47;;;;;;;81.53;29.10;;;;;;;2.76;100.00;99139.06;4237876;28;20501;-72
2024/01/01 09:37:14;;;;;;;80.47;29.87;;;;;;;2.71;100.00;99135.94;4285787;28;21008;-70
2024/01/01 09:39:43;;;;;;;82.10;30.53;;;;;;;2.88;100.00;99126.50;4252595;28;21142;-71
2024/01/01 09:42:09;;;;;;;73.73;28.50;;;;;;;2.92;100.00;99125.25;4283480;28;20235;-70
2024/01/01 09:44:37;;;;;;;79.07;28.97;;;;;;;2.83;100.00;99133.06;4291071;28;20239;-71
2024/01/01 09:47:05;;;;;;;76.70;26.43;;;;;;;2.78;100.00;99131.78;4274968;28;20593;-70
2024/01/01 09:49:33;;;;;;;78.73;28.97;;;;;;;2.67;100.00;99127.34;4256982;28;25406;-69
2024/01/01 09:51:59;;;;;;;82.63;28.53;;;;;;;2.60;100.00;99123.50;4274484;28;22000;-71
2024/01/01 09:54:26;;;;;;;82.50;29.80;;;;;;;2.49;100.00;99119.88;4242709;28;20360;-71
2024/01/01 09:56:52;;;;;;;76.47;26.80;;;;;;;2.50;100.00;99126.94;4242284;28;21602;-73
2024/01/01 09:59:36;;;;;;;63.67;26.13;;;;;;;2.63;100.00;99118.75;4236817;28;20472;-71
2024/01/01 10:02:08;;;;;;;78.77;29.93;;;;;;;2.38;100.00;99112.78;4277817;28;20429;-71
2024/01/01 10:04:36;;;;;;;75.77;27.37;;;;;;;2.43;100.00;99109.72;4274842;28;21734;-68
2024/01/01 10:07:03;;;;;;;73.73;27.57;;;;;;;2.32;100.00;99113.28;4236961;28;21778;-70
2024/01/01 10:09:31;;;;;;;84.03;28.93;;;;;;;2.29;100.00;99121.53;4232387;28;20237;-69
2024/01/01 10:12:11;;;;;;;71.87;27.73;;;;;;;2.29;100.00;99110.03;4265578;28;20313;-68
2024/01/01 10:14:44;;;;;;;83.07;29.83;;;;;;;2.26;100.00;99115.59;4286036;28;20263;-68
2024/01/01 10:17:15;;;;;;;88.97;30.07;;;;;;;2.22;100.00;99109.66;4267449;28;21154;-68
2024/01/01 10:19:50;;;;;;;84.33;30.37;;;;;;;2.14;100.00;99104.97;4266151;28;23147;-70
2024/01/01 10:22:20;;;;;;;83.53;29.33;;;;;;;2.13;100.00;99108.63;4253924;28;23294;-67
2024/01/01 10:24:49;;;;;;;78.13;29.67;;;;;;;2.26;100.00;99103.13;4270053;28;20238;-68
2024/01/01 10:27:20;;;;;;;87.33;31.33;;;;;;;2.16;100.00;99099.50;4309302;28;20479;-69
2024/01/01 10:29:47;;;;;;;82.57;31.07;;;;;;;2.17;100.00;99102.03;4284313;28;20235;-71
2024/01/01 10:32:18;;;;;;;77.80;29.83;;;;;;;2.21;100.00;99105.31;4267613;28;22032;-67
2024/01/01 10:34:46;;;;;;;80.10;30.20;;;;;;;2.14;100.00;99102.31;4309686;28;20300;-69
2024/01/01 10:37:14;;;;;;;82.07;29.83;;;;;;;2.25;100.00;99100.56;4303243;28;25543;-68
2024/01/01 10:39:43;;;;;;;82.43;30.57;;;;;;;2.25;100.00;99098.75;4230727;28;20413;-67
2024/01/01 10:42:10;;;;;;;76.60;30.37;;;;;;;2.25;100.00;99096.09;4285995;28;20231;-66
2024/01/01 10:44:38;;;;;;;79.83;29.77;;;;;;;2.18;100.00;99095.72;4269127;28;20280;-71
2024/01/01 10:47:09;;;;;;;93.80;33.17;;;;;;;2.10;100.00;99090.16;4275722;28;20636;-71
2024/01/01 10:49:43;;;;;;;88.20;31.77;;;;;;;2.14;100.00;99085.44;4240605;28;20235;-69
2024/01/01 10:52:27;;;;;;;86.20;32.90;;;;;;;2.16;100.00;99081.66;4275788;28;21174;-69
2024/01/01 10:54:59;;;;;;;89.17;31.10;;;;;;;2.14;100.00;99085.44;4276976;28;20309;-70
2024/01/01 10:57:43;;;;;;;86.90;32.03;;;;;;;2.19;100.00;99085.91;4236208;28;20731;-69
2024/01/01 11:00:31;;;;;;;82.27;30.67;;;;;;;2.16;100.00;99078.97;4258125;28;20850;-70
2024/01/01 11:02:59;;;;;;;79.03;28.80;;;;;;;2.14;100.00;99080.09;4248990;28;22653;-68
2024/01/01 11:05:34;;;;;;;80.37;29.10;;;;;;;2.10;100.00;99078.66;4272347;28;20228;-68
2024/01/01 11:08:02;;;;;;;82.33;29.37;;;;;;;2.04;100.00;99075.50;4288983;28;20240;-69
2024/01/01 11:10:42;;;;;;;85.67;30.13;;;;;;;2.11;100.00;99072.34;4269958;28;20614;-70
2024/01/01 11:13:33;;;;;;;74.97;29.50;;;;;;;2.13;100.00;99067.72;4238789;28;20305;-70
2024/01/01 11:16:05;;;;;;;71.57;26.60;;;;;;;2.25;100.00;99064.03;4228591;28;20242;-68
2024/01/01 11:18:33;;;;;;;66.83;26.73;;;;;;;2.39;100.00;99054.84;4242983;28;20271;-68